createdAt,value
2023-05-06T00:01:24.364Z,17.98
2023-05-06T00:06:17.971Z,16.95
2023-05-06T00:08:46.139Z,12.02
2023-05-06T00:11:13.870Z,12.55
2023-05-06T00:13:41.224Z,13.32
2023-05-06T00:16:10.824Z,15.88
2023-05-06T00:18:37.312Z,15.30
2023-05-06T00:21:04.183Z,12.38
2023-05-06T00:23:30.873Z,17.13
2023-05-06T00:25:57.887Z,17.45
2023-05-06T00:28:25.046Z,17.08
2023-05-06T00:30:51.904Z,24.52
2023-05-06T00:35:45.364Z,15.85
2023-05-06T00:38:13.864Z,10.90
2023-05-06T00:40:40.947Z,16.70
2023-05-06T00:43:08.201Z,17.73
2023-05-06T00:45:35.441Z,19.30
2023-05-06T00:48:03.244Z,14.70
2023-05-06T00:50:32.528Z,14.80
2023-05-06T00:53:00.167Z,16.40
2023-05-06T00:55:29.049Z,12.75
2023-05-06T00:57:56.032Z,10.80
2023-05-06T01:00:23.255Z,14.82
2023-05-06T01:02:49.933Z,12.80
2023-05-06T01:08:16.683Z,15.90
2023-05-06T01:11:02.471Z,11.27
2023-05-06T01:13:45.497Z,14.52
2023-05-06T01:16:14.127Z,15.02
2023-05-06T01:18:43.387Z,11.70
2023-05-06T01:21:12.695Z,11.50
2023-05-06T01:23:54.284Z,13.07
2023-05-06T01:26:21.554Z,16.65
2023-05-06T01:28:48.543Z,14.02
2023-05-06T01:31:40.982Z,11.65
2023-05-06T01:34:27.852Z,14.30
2023-05-06T01:51:29.788Z,11.93
2023-05-06T01:56:22.653Z,16.48
2023-05-06T01:58:49.084Z,16.50
2023-05-06T02:01:15.682Z,13.98
2023-05-06T02:03:42.193Z,20.70
2023-05-06T02:06:08.725Z,13.70
2023-05-06T02:08:35.160Z,15.77
2023-05-06T02:11:01.574Z,15.35
2023-05-06T02:13:28.087Z,16.13
2023-05-06T02:15:55.234Z,12.75
2023-05-06T02:18:22.196Z,13.75
2023-05-06T02:20:48.631Z,15.95
2023-05-06T02:23:15.077Z,18.88
2023-05-06T02:25:41.500Z,16.15
2023-05-06T02:28:08.014Z,16.25
2023-05-06T02:30:34.904Z,16.45
2023-05-06T02:33:01.437Z,21.27
2023-05-06T02:35:27.969Z,10.38
2023-05-06T02:37:54.417Z,15.15
2023-05-06T02:40:20.828Z,15.82
2023-05-06T02:42:47.316Z,9.93
2023-05-06T02:45:13.906Z,16.95
2023-05-06T02:47:40.590Z,11.45
2023-05-06T02:52:34.628Z,11.75
2023-05-06T02:55:02.147Z,15.55
2023-05-06T02:57:28.773Z,14.23
2023-05-06T02:59:55.209Z,20.15
2023-05-06T03:02:21.737Z,16.08
2023-05-06T03:04:48.218Z,16.63
2023-05-06T03:07:14.628Z,17.05
2023-05-06T03:09:41.066Z,11.32
2023-05-06T03:12:07.496Z,17.13
2023-05-06T03:14:34.070Z,18.58
2023-05-06T03:17:00.543Z,19.50
2023-05-06T03:19:27.037Z,19.42
2023-05-06T03:21:53.504Z,16.27
2023-05-06T03:24:20.312Z,15.40
2023-05-06T03:29:13.133Z,14.95
2023-05-06T03:31:39.697Z,16.30
2023-05-06T03:34:06.330Z,9.32
2023-05-06T03:36:33.088Z,11.52
2023-05-06T03:41:25.876Z,11.23
2023-05-06T03:43:52.798Z,14.68
2023-05-06T03:46:19.263Z,14.32
2023-05-06T03:48:45.748Z,12.25
2023-05-06T03:51:12.249Z,16.20
2023-05-06T03:53:38.715Z,14.60
2023-05-06T03:56:05.564Z,14.18
2023-05-06T03:58:32.017Z,15.57
2023-05-06T04:01:00.959Z,14.48
2023-05-06T04:03:27.589Z,17.02
2023-05-06T04:05:54.118Z,16.23
2023-05-06T04:08:20.601Z,12.82
2023-05-06T04:10:47.077Z,11.95
2023-05-06T04:13:13.536Z,12.57
2023-05-06T04:15:41.554Z,14.40
2023-05-06T04:18:08.309Z,11.30
2023-05-06T04:20:34.926Z,19.88
2023-05-06T04:23:01.812Z,16.73
2023-05-06T04:25:28.789Z,13.57
2023-05-06T04:27:55.257Z,16.15
2023-05-06T04:30:22.560Z,17.70
2023-05-06T04:32:51.498Z,11.05
2023-05-06T04:35:18.072Z,18.98
2023-05-06T04:37:44.627Z,12.23
2023-05-06T04:40:13.781Z,14.90
2023-05-06T04:42:40.304Z,16.25
2023-05-06T04:45:07.476Z,14.43
2023-05-06T04:47:34.218Z,9.38
2023-05-06T04:50:01.004Z,9.75
2023-05-06T04:54:53.878Z,17.20
2023-05-06T04:57:20.357Z,12.10
2023-05-06T04:59:46.828Z,14.50
2023-05-06T05:02:13.476Z,12.88
2023-05-06T05:04:39.919Z,15.15
2023-05-06T05:07:07.527Z,14.57
2023-05-06T05:09:35.435Z,15.40
2023-05-06T05:12:03.080Z,16.00
2023-05-06T05:14:29.832Z,32.40
2023-05-06T05:19:22.845Z,10.70
2023-05-06T05:21:49.728Z,16.50
2023-05-06T05:24:16.366Z,16.13
2023-05-06T05:26:42.830Z,12.57
2023-05-06T05:29:09.339Z,12.30
2023-05-06T05:31:35.949Z,11.23
2023-05-06T05:34:02.451Z,11.65
2023-05-06T05:36:29.057Z,11.40
2023-05-06T05:38:55.580Z,10.00
2023-05-06T05:41:22.015Z,13.23
2023-05-06T05:43:48.477Z,13.77
2023-05-06T05:46:15.272Z,14.27
2023-05-06T05:51:08.513Z,15.63
2023-05-06T05:53:34.971Z,18.77
2023-05-06T05:56:01.435Z,14.73
2023-05-06T05:58:27.917Z,17.25
2023-05-06T06:00:54.391Z,12.25
2023-05-06T06:03:21.059Z,10.73
2023-05-06T06:08:18.396Z,13.93
2023-05-06T06:10:45.253Z,15.65
2023-05-06T06:13:11.964Z,12.38
2023-05-06T06:15:39.009Z,13.38
2023-05-06T06:18:08.989Z,14.13
2023-05-06T06:20:37.488Z,14.68
2023-05-06T06:23:04.390Z,12.38
2023-05-06T06:25:31.035Z,13.00
2023-05-06T06:27:57.544Z,11.77
2023-05-06T06:30:24.512Z,15.52
2023-05-06T06:32:52.983Z,13.77
2023-05-06T06:35:23.550Z,12.18
2023-05-06T06:37:50.587Z,16.02
2023-05-06T06:40:17.280Z,15.70
2023-05-06T06:42:43.846Z,16.30
2023-05-06T06:45:11.438Z,12.88
2023-05-06T06:47:38.626Z,15.68
2023-05-06T06:50:06.027Z,19.35
2023-05-06T06:52:32.751Z,13.52
2023-05-06T06:57:25.993Z,17.58
2023-05-06T07:02:23.596Z,14.65
2023-05-06T07:04:50.277Z,13.13
2023-05-06T07:07:23.552Z,17.80
2023-05-06T07:09:50.273Z,13.68
2023-05-06T07:12:16.958Z,14.18
2023-05-06T07:14:43.734Z,16.15
2023-05-06T07:19:37.370Z,16.42
2023-05-06T07:22:04.067Z,18.83
2023-05-06T07:24:33.984Z,15.70
2023-05-06T07:27:01.630Z,18.75
2023-05-06T07:29:28.367Z,18.05
2023-05-06T07:34:26.450Z,17.08
2023-05-06T07:36:56.335Z,15.77
2023-05-06T07:39:23.125Z,18.90
2023-05-06T07:44:16.526Z,14.13
2023-05-06T07:49:09.877Z,12.90
2023-05-06T07:51:36.370Z,20.10
2023-05-06T07:54:03.225Z,17.67
2023-05-06T07:56:29.699Z,13.07
2023-05-06T07:58:56.279Z,14.82
2023-05-06T08:01:22.847Z,15.63
2023-05-06T08:03:49.677Z,16.02
2023-05-06T08:06:16.446Z,15.85
2023-05-06T08:11:09.556Z,16.10
2023-05-06T08:13:36.031Z,18.40
2023-05-06T08:16:02.768Z,15.43
2023-05-06T08:20:56.086Z,17.10
2023-05-06T08:23:22.795Z,15.25
2023-05-06T08:28:17.934Z,16.50
2023-05-06T08:30:47.693Z,16.58
2023-05-06T08:33:14.513Z,14.98
2023-05-06T08:38:08.867Z,12.93
2023-05-06T08:40:43.265Z,16.05
2023-05-06T08:43:14.858Z,17.50
2023-05-06T08:45:43.722Z,19.52
2023-05-06T08:48:10.605Z,16.52
2023-05-06T08:50:42.490Z,15.60
2023-05-06T08:53:12.012Z,14.60
2023-05-06T08:55:40.938Z,13.60
2023-05-06T08:58:08.171Z,12.52
2023-05-06T09:00:35.425Z,17.33
2023-05-06T09:03:02.019Z,17.17
2023-05-06T09:05:28.997Z,16.75
2023-05-06T09:07:55.693Z,18.90
2023-05-06T09:10:22.450Z,17.10
2023-05-06T09:15:15.442Z,18.38
2023-05-06T09:17:42.009Z,18.20
2023-05-06T09:20:12.006Z,16.42
2023-05-06T09:22:40.308Z,16.02
2023-05-06T09:25:07.500Z,18.13
2023-05-06T09:27:36.662Z,21.08
2023-05-06T09:30:14.201Z,15.52
2023-05-06T09:32:41.159Z,15.98
2023-05-06T09:35:09.449Z,17.48
2023-05-06T09:37:36.326Z,18.25
2023-05-06T09:40:02.807Z,16.30
2023-05-06T09:42:30.697Z,16.92
2023-05-06T09:45:07.503Z,19.52
2023-05-06T09:47:35.198Z,18.90
2023-05-06T09:50:03.274Z,17.45
2023-05-06T09:52:31.133Z,15.63
2023-05-06T09:54:58.037Z,21.27
2023-05-06T09:57:25.802Z,15.77
2023-05-06T09:59:54.086Z,19.05
2023-05-06T10:02:23.287Z,16.00
2023-05-06T10:04:52.980Z,19.42
2023-05-06T10:07:25.649Z,18.88
2023-05-06T10:09:54.365Z,15.52
2023-05-06T10:12:21.033Z,18.10
2023-05-06T10:17:14.404Z,13.88
2023-05-06T10:19:47.289Z,15.43
2023-05-06T10:22:37.222Z,17.33
2023-05-06T10:25:11.009Z,16.58
2023-05-06T10:27:40.833Z,13.00
2023-05-06T10:30:10.163Z,14.35
2023-05-06T10:32:41.300Z,15.40
2023-05-06T10:35:14.789Z,15.80
2023-05-06T10:37:42.946Z,16.00
2023-05-06T10:40:10.277Z,14.63
2023-05-06T10:42:36.697Z,13.30
2023-05-06T10:45:05.103Z,12.90
2023-05-06T10:48:03.766Z,13.13
2023-05-06T10:50:30.325Z,16.15
2023-05-06T10:52:59.120Z,10.85
2023-05-06T10:55:33.654Z,11.82
2023-05-06T10:58:12.804Z,14.88
2023-05-06T11:00:39.458Z,13.02
2023-05-06T11:03:08.376Z,13.27
2023-05-06T11:05:51.982Z,11.38
2023-05-06T11:08:23.649Z,14.13
2023-05-06T11:10:50.187Z,13.98
2023-05-06T11:13:19.001Z,12.30
2023-05-06T11:15:46.444Z,10.32
2023-05-06T11:18:25.235Z,16.52
2023-05-06T11:21:12.657Z,11.85
2023-05-06T11:23:42.481Z,10.68
2023-05-06T11:26:10.443Z,12.07
2023-05-06T11:28:37.542Z,8.32
2023-05-06T11:31:04.444Z,8.35
2023-05-06T11:33:36.660Z,10.88
2023-05-06T11:36:04.595Z,9.85
2023-05-06T11:38:44.812Z,7.43
2023-05-06T11:41:13.004Z,7.65
2023-05-06T11:43:39.862Z,10.60
2023-05-06T11:48:33.164Z,5.45
2023-05-06T11:51:00.103Z,6.80
2023-05-06T11:53:26.612Z,6.03
2023-05-06T11:55:54.036Z,12.60
2023-05-06T11:58:24.948Z,7.50
2023-05-06T12:01:03.166Z,5.97
2023-05-06T12:03:31.434Z,7.05
2023-05-06T12:05:59.250Z,5.72
2023-05-06T12:08:31.705Z,5.18
2023-05-06T12:11:02.015Z,4.47
2023-05-06T12:13:29.571Z,8.00
2023-05-06T12:15:58.871Z,4.85
2023-05-06T12:18:26.221Z,6.03
2023-05-06T12:20:56.383Z,6.50
2023-05-06T12:23:23.485Z,7.43
2023-05-06T12:26:08.450Z,5.78
2023-05-06T12:28:36.773Z,5.38
2023-05-06T12:31:20.159Z,8.65
2023-05-06T12:33:49.799Z,6.60
2023-05-06T12:36:17.465Z,10.55
2023-05-06T12:38:52.547Z,6.15
2023-05-06T12:41:23.376Z,7.53
2023-05-06T12:43:50.284Z,6.25
2023-05-06T12:46:17.293Z,6.45
2023-05-06T12:48:56.865Z,5.85
2023-05-06T12:51:23.777Z,12.52
2023-05-06T12:53:50.263Z,7.18
2023-05-06T12:56:16.706Z,6.40
2023-05-06T12:58:43.120Z,13.30
2023-05-06T13:01:09.543Z,8.93
2023-05-06T13:03:38.577Z,9.80
2023-05-06T13:06:05.761Z,6.85
2023-05-06T13:08:32.186Z,8.07
2023-05-06T13:10:59.741Z,8.63
2023-05-06T13:13:26.192Z,7.93
2023-05-06T13:15:53.547Z,6.95
2023-05-06T13:18:19.964Z,6.60
2023-05-06T13:20:46.388Z,6.15
2023-05-06T13:23:12.811Z,5.70
2023-05-06T13:25:51.712Z,6.20
2023-05-06T13:28:25.630Z,7.10
2023-05-06T13:30:52.162Z,6.20
2023-05-06T13:33:18.641Z,8.73
2023-05-06T13:35:45.084Z,9.73
2023-05-06T13:38:11.483Z,8.00
2023-05-06T13:40:37.904Z,11.38
2023-05-06T13:43:04.379Z,8.70
2023-05-06T13:45:33.614Z,6.43
2023-05-06T13:48:00.213Z,8.55
2023-05-06T13:50:26.659Z,8.95
2023-05-06T13:52:53.088Z,5.63
2023-05-06T13:55:19.690Z,9.55
2023-05-06T13:57:46.127Z,8.35
2023-05-06T14:00:13.146Z,5.55
2023-05-06T14:02:39.667Z,6.00
2023-05-06T14:05:06.776Z,7.88
2023-05-06T14:07:33.806Z,7.38
2023-05-06T14:10:00.735Z,4.95
2023-05-06T14:12:27.284Z,6.13
2023-05-06T14:14:54.249Z,6.97
2023-05-06T14:17:23.132Z,4.88
2023-05-06T14:19:49.631Z,6.10
2023-05-06T14:22:16.051Z,5.50
2023-05-06T14:24:42.453Z,5.57
2023-05-06T14:27:12.721Z,9.32
2023-05-06T14:29:42.598Z,7.15
2023-05-06T14:32:09.646Z,6.57
2023-05-06T14:34:36.907Z,6.43
2023-05-06T14:37:03.602Z,5.20
2023-05-06T14:39:30.055Z,6.50
2023-05-06T14:41:56.477Z,9.20
2023-05-06T14:44:22.934Z,6.05
2023-05-06T14:46:49.892Z,4.47
2023-05-06T14:49:16.526Z,4.32
2023-05-06T14:51:43.410Z,6.05
2023-05-06T14:54:10.306Z,9.75
2023-05-06T14:56:37.239Z,4.30
2023-05-06T14:59:04.274Z,4.22
2023-05-06T15:01:32.233Z,4.18
2023-05-06T15:03:58.778Z,6.38
2023-05-06T15:06:25.414Z,8.88
2023-05-06T15:08:52.121Z,3.00
2023-05-06T15:11:18.567Z,7.05
2023-05-06T15:13:45.061Z,5.20
2023-05-06T15:16:11.721Z,7.28
2023-05-06T15:21:04.841Z,3.50
2023-05-06T15:23:31.282Z,5.78
2023-05-06T15:25:58.227Z,5.97
2023-05-06T15:28:24.890Z,2.88
2023-05-06T15:30:51.462Z,3.50
2023-05-06T15:33:17.941Z,4.43
2023-05-06T15:35:44.644Z,2.88
2023-05-06T15:38:11.094Z,8.25
2023-05-06T15:40:40.523Z,4.45
2023-05-06T15:43:08.468Z,3.58
2023-05-06T15:45:35.409Z,3.80
2023-05-06T15:48:01.857Z,7.15
2023-05-06T15:50:33.289Z,3.78
2023-05-06T15:53:01.156Z,4.97
2023-05-06T15:55:27.754Z,3.80
2023-05-06T15:57:59.827Z,4.00
2023-05-06T16:00:27.878Z,5.45
2023-05-06T16:02:54.521Z,9.55
2023-05-06T16:05:21.004Z,4.38
2023-05-06T16:07:48.485Z,3.80
2023-05-06T16:10:14.917Z,5.18
2023-05-06T16:12:41.497Z,3.72
2023-05-06T16:15:08.551Z,3.78
2023-05-06T16:17:37.650Z,3.50
2023-05-06T16:20:05.347Z,2.55
2023-05-06T16:22:31.859Z,4.10
2023-05-06T16:24:58.335Z,4.18
2023-05-06T16:27:27.433Z,3.42
2023-05-06T16:29:53.943Z,4.28
2023-05-06T16:32:20.449Z,8.20
2023-05-06T16:34:47.018Z,4.53
2023-05-06T16:37:15.304Z,4.78
2023-05-06T16:39:41.843Z,6.22
2023-05-06T16:42:08.282Z,6.88
2023-05-06T16:44:35.188Z,4.18
2023-05-06T16:47:01.966Z,4.70
2023-05-06T16:51:54.912Z,4.75
2023-05-06T16:54:21.348Z,4.43
2023-05-06T16:56:52.065Z,5.68
2023-05-06T16:59:21.665Z,4.95
2023-05-06T17:01:48.798Z,4.32
2023-05-06T17:04:17.933Z,4.60
2023-05-06T17:06:44.375Z,5.60
2023-05-06T17:09:11.045Z,5.68
2023-05-06T17:11:37.542Z,6.82
2023-05-06T17:14:03.991Z,5.57
2023-05-06T17:16:30.469Z,9.07
2023-05-06T17:18:56.970Z,7.13
2023-05-06T17:21:23.785Z,10.10
2023-05-06T17:26:21.053Z,8.85
2023-05-06T17:28:51.073Z,8.50
2023-05-06T17:31:22.498Z,9.15
2023-05-06T17:33:49.056Z,10.25
2023-05-06T17:36:18.484Z,8.95
2023-05-06T17:38:44.991Z,7.22
2023-05-06T17:41:11.970Z,6.95
2023-05-06T17:43:38.610Z,6.93
2023-05-06T17:46:06.584Z,6.10
2023-05-06T17:48:33.112Z,7.25
2023-05-06T17:51:03.236Z,8.45
2023-05-06T17:53:29.954Z,8.68
2023-05-06T17:55:56.382Z,7.22
2023-05-06T17:58:22.893Z,7.63
2023-05-06T18:00:49.321Z,8.18
2023-05-06T18:03:15.819Z,8.30
2023-05-06T18:05:42.253Z,7.57
2023-05-06T18:08:09.542Z,12.95
2023-05-06T18:10:36.125Z,7.60
2023-05-06T18:13:02.684Z,9.30
2023-05-06T18:15:29.247Z,10.82
2023-05-06T18:17:55.878Z,7.70
2023-05-06T18:20:23.179Z,8.75
2023-05-06T18:22:49.631Z,8.95
2023-05-06T18:25:16.231Z,8.98
2023-05-06T18:27:42.909Z,7.70
2023-05-06T18:30:09.614Z,9.25
2023-05-06T18:35:02.541Z,11.95
2023-05-06T18:37:31.924Z,10.43
2023-05-06T18:39:58.630Z,10.93
2023-05-06T18:42:27.448Z,16.38
2023-05-06T18:44:54.413Z,12.50
2023-05-06T18:47:21.004Z,14.20
2023-05-06T18:49:47.663Z,15.07
2023-05-06T18:52:15.271Z,12.05
2023-05-06T18:54:42.037Z,15.80
2023-05-06T18:59:36.285Z,17.10
2023-05-06T19:02:03.866Z,15.25
2023-05-06T19:04:31.713Z,17.85
2023-05-06T19:06:58.283Z,14.18
2023-05-06T19:09:24.936Z,17.63
2023-05-06T19:11:51.501Z,11.90
2023-05-06T19:14:19.536Z,18.13
2023-05-06T19:16:46.543Z,12.82
2023-05-06T19:19:13.101Z,14.23
2023-05-06T19:21:39.637Z,19.67
2023-05-06T19:24:06.501Z,15.05
2023-05-06T19:26:33.115Z,16.95
2023-05-06T19:28:59.621Z,19.50
2023-05-06T19:31:26.397Z,17.45
2023-05-06T19:36:19.438Z,15.43
2023-05-06T19:38:45.902Z,19.67
2023-05-06T19:41:13.202Z,20.27
2023-05-06T19:43:44.204Z,18.45
2023-05-06T19:46:11.778Z,17.48
2023-05-06T19:48:39.153Z,20.90
2023-05-06T19:51:06.685Z,17.15
2023-05-06T19:53:34.128Z,21.05
2023-05-06T19:56:13.542Z,18.25
2023-05-06T19:58:40.694Z,25.42
2023-05-06T20:01:07.382Z,28.40
2023-05-06T20:06:01.671Z,22.60
2023-05-06T20:08:28.283Z,20.77
2023-05-06T20:10:55.010Z,28.13
2023-05-06T20:15:48.814Z,27.20
2023-05-06T20:18:15.449Z,28.63
2023-05-06T20:20:43.323Z,24.75
2023-05-06T20:23:09.781Z,20.00
2023-05-06T20:25:37.367Z,26.38
2023-05-06T20:28:05.956Z,31.75
2023-05-06T20:30:33.207Z,34.17
2023-05-06T20:33:02.080Z,26.58
2023-05-06T20:35:28.574Z,30.92
2023-05-06T20:37:55.880Z,34.28
2023-05-06T20:40:22.476Z,29.27
2023-05-06T20:42:49.077Z,28.08
2023-05-06T20:45:15.646Z,29.15
2023-05-06T20:47:42.283Z,28.35
2023-05-06T20:50:09.426Z,31.13
2023-05-06T20:52:35.937Z,30.80
2023-05-06T20:55:03.293Z,31.77
2023-05-06T20:57:29.812Z,28.88
2023-05-06T20:59:56.293Z,34.47
2023-05-06T21:02:25.029Z,35.85
2023-05-06T21:04:51.890Z,30.98
2023-05-06T21:09:45.759Z,30.15
2023-05-06T21:12:12.786Z,30.85
2023-05-06T21:14:39.705Z,32.75
2023-05-06T21:17:06.236Z,31.38
2023-05-06T21:19:32.754Z,29.95
2023-05-06T21:21:59.185Z,37.80
2023-05-06T21:24:26.073Z,38.22
2023-05-06T21:26:53.699Z,30.75
2023-05-06T21:29:21.341Z,30.98
2023-05-06T21:31:47.974Z,33.72
2023-05-06T21:34:14.502Z,37.63
2023-05-06T21:36:40.984Z,28.90
2023-05-06T21:39:16.879Z,32.88
2023-05-06T21:41:43.384Z,33.92
2023-05-06T21:44:10.392Z,32.25
2023-05-06T21:46:38.080Z,31.35
2023-05-06T21:49:04.842Z,32.28
2023-05-06T21:51:33.204Z,29.92
2023-05-06T21:53:59.804Z,32.00
2023-05-06T21:56:26.458Z,34.10
2023-05-06T21:58:54.699Z,24.63
2023-05-06T22:01:22.048Z,30.67
2023-05-06T22:03:48.632Z,30.80
2023-05-06T22:06:15.695Z,34.33
2023-05-06T22:08:42.161Z,34.42
2023-05-06T22:11:10.595Z,34.30
2023-05-06T22:13:37.185Z,34.35
2023-05-06T22:16:04.172Z,33.20
2023-05-06T22:18:31.927Z,34.92
2023-05-06T22:20:58.738Z,29.00
2023-05-06T22:25:52.241Z,27.67
2023-05-06T22:30:45.559Z,29.55
2023-05-06T22:33:12.158Z,27.17
2023-05-06T22:35:38.622Z,30.98
2023-05-06T22:38:05.056Z,24.63
2023-05-06T22:40:31.514Z,22.73
2023-05-06T22:42:57.929Z,25.00
2023-05-06T22:45:24.383Z,22.80
2023-05-06T22:47:50.966Z,23.10
2023-05-06T22:50:17.532Z,25.85
2023-05-06T22:52:43.935Z,23.95
2023-05-06T22:55:11.052Z,23.65
2023-05-06T22:57:37.825Z,31.35
2023-05-06T23:00:05.819Z,25.88
2023-05-06T23:02:32.939Z,23.60
2023-05-06T23:04:59.474Z,28.50
2023-05-06T23:07:25.976Z,23.85
2023-05-06T23:09:52.435Z,21.67
2023-05-06T23:12:18.852Z,29.27
2023-05-06T23:14:45.284Z,25.35
2023-05-06T23:17:11.781Z,24.88
2023-05-06T23:19:38.193Z,25.30
2023-05-06T23:22:04.631Z,23.80
2023-05-06T23:24:31.060Z,23.27
2023-05-06T23:26:57.535Z,25.33
2023-05-06T23:29:24.006Z,21.42
2023-05-06T23:31:50.470Z,26.05
2023-05-06T23:34:16.903Z,28.33
2023-05-06T23:36:43.370Z,24.38
2023-05-06T23:39:12.215Z,27.75
2023-05-06T23:41:38.781Z,21.88
2023-05-06T23:44:06.253Z,24.25
2023-05-06T23:46:33.068Z,22.65
2023-05-06T23:48:59.597Z,21.17
2023-05-06T23:51:26.582Z,20.73
2023-05-06T23:53:53.118Z,28.27
2023-05-06T23:56:20.588Z,22.30
2023-05-06T23:58:47.029Z,25.88
